createdAt,value
2019-04-05T00:04:36.244Z,12.00
2019-04-05T00:07:25.039Z,11.97
2019-04-05T00:10:14.214Z,11.77
2019-04-05T00:13:03.090Z,11.00
2019-04-05T00:15:45.067Z,10.57
2019-04-05T00:18:33.867Z,11.40
2019-04-05T00:21:22.649Z,11.20
2019-04-05T00:24:11.441Z,11.67
2019-04-05T00:27:00.242Z,15.88
2019-04-05T00:29:49.024Z,13.30
2019-04-05T00:32:37.829Z,11.63
2019-04-05T00:35:26.620Z,13.13
2019-04-05T00:38:15.397Z,9.97
2019-04-05T00:41:23.213Z,10.00
2019-04-05T00:44:11.990Z,14.80
2019-04-05T00:47:00.794Z,14.00
2019-04-05T00:49:49.589Z,14.47
2019-04-05T00:52:38.452Z,13.77
2019-04-05T00:55:27.250Z,12.90
2019-04-05T00:58:16.113Z,12.30
2019-04-05T01:04:19.895Z,13.07
2019-04-05T01:07:08.674Z,12.67
2019-04-05T01:09:57.553Z,10.90
2019-04-05T01:13:06.193Z,12.37
2019-04-05T01:15:54.979Z,11.93
2019-04-05T01:18:37.114Z,9.87
2019-04-05T01:21:25.980Z,13.37
2019-04-05T01:24:35.649Z,12.07
2019-04-05T01:27:48.332Z,13.80
2019-04-05T01:30:36.287Z,12.27
2019-04-05T01:33:25.096Z,11.63
2019-04-05T01:36:13.865Z,12.33
2019-04-05T01:38:43.323Z,13.43
2019-04-05T01:41:32.103Z,14.17
2019-04-05T01:44:20.896Z,15.03
2019-04-05T01:47:09.687Z,15.18
2019-04-05T01:49:58.479Z,15.43
2019-04-05T01:52:47.425Z,13.17
2019-04-05T01:55:55.318Z,14.37
2019-04-05T01:58:44.093Z,11.43
2019-04-05T02:01:32.973Z,10.97
2019-04-05T02:04:21.756Z,12.57
2019-04-05T02:07:10.633Z,10.50
2019-04-05T02:09:59.408Z,11.13
2019-04-05T02:12:48.270Z,10.57
2019-04-05T02:16:06.146Z,11.57
2019-04-05T02:18:40.299Z,11.07
2019-04-05T02:21:29.099Z,10.50
2019-04-05T02:24:17.945Z,10.40
2019-04-05T02:27:06.806Z,7.65
2019-04-05T02:29:55.591Z,7.57
2019-04-05T02:32:44.451Z,8.53
2019-04-05T02:35:33.230Z,6.80
2019-04-05T02:38:22.093Z,7.37
2019-04-05T02:41:10.930Z,6.70
2019-04-05T02:44:20.652Z,7.27
2019-04-05T02:47:30.359Z,6.80
2019-04-05T02:50:40.040Z,8.17
2019-04-05T02:53:29.120Z,8.97
2019-04-05T02:56:18.373Z,8.57
2019-04-05T02:59:07.742Z,7.73
2019-04-05T03:08:19.432Z,8.37
2019-04-05T03:11:29.139Z,6.80
2019-04-05T03:14:38.825Z,8.30
2019-04-05T03:17:20.662Z,8.50
2019-04-05T03:20:09.445Z,9.17
2019-04-05T03:22:58.304Z,8.15
2019-04-05T03:26:07.283Z,10.17
2019-04-05T03:29:16.972Z,9.20
2019-04-05T03:32:06.199Z,8.50
2019-04-05T03:35:15.939Z,8.00
2019-04-05T03:38:04.781Z,6.80
2019-04-05T03:40:53.573Z,7.43
2019-04-05T03:43:42.370Z,7.17
2019-04-05T03:49:46.232Z,11.03
2019-04-05T03:52:35.036Z,7.90
2019-04-05T03:55:43.008Z,7.37
2019-04-05T03:58:31.924Z,7.77
2019-04-05T04:01:20.738Z,9.30
2019-04-05T04:04:09.525Z,8.60
2019-04-05T04:06:58.329Z,7.97
2019-04-05T04:09:47.112Z,8.07
2019-04-05T04:12:36.173Z,7.20
2019-04-05T04:15:25.819Z,8.03
2019-04-05T04:18:07.099Z,5.87
2019-04-05T04:21:16.772Z,5.50
2019-04-05T04:24:05.639Z,7.80
2019-04-05T04:26:54.418Z,6.40
2019-04-05T04:30:02.248Z,4.80
2019-04-05T04:32:51.017Z,6.77
2019-04-05T04:38:55.238Z,6.83
2019-04-05T04:41:44.693Z,5.50
2019-04-05T04:44:33.487Z,15.70
2019-04-05T04:47:41.311Z,11.70
2019-04-05T04:50:30.448Z,8.10
2019-04-05T04:56:27.217Z,10.07
2019-04-05T04:59:16.006Z,8.73
2019-04-05T05:02:04.872Z,6.43
2019-04-05T05:04:53.663Z,7.13
2019-04-05T05:07:42.525Z,7.30
2019-04-05T05:10:31.386Z,6.10
2019-04-05T05:13:20.259Z,6.43
2019-04-05T05:16:02.581Z,8.13
2019-04-05T05:19:10.448Z,7.90
2019-04-05T05:24:53.904Z,6.67
2019-04-05T05:27:42.891Z,5.70
2019-04-05T05:30:31.663Z,6.30
2019-04-05T05:33:20.457Z,5.27
2019-04-05T05:42:19.311Z,5.90
2019-04-05T05:45:29.017Z,8.70
2019-04-05T05:48:17.968Z,7.90
2019-04-05T05:51:06.758Z,7.80
2019-04-05T05:53:55.528Z,8.23
2019-04-05T05:56:44.330Z,13.43
2019-04-05T05:59:32.788Z,10.30
2019-04-05T06:02:21.253Z,9.90
2019-04-05T06:08:25.429Z,6.73
2019-04-05T06:11:14.311Z,8.67
2019-04-05T06:14:03.174Z,7.83
2019-04-05T06:19:35.589Z,6.43
2019-04-05T06:22:24.403Z,9.50
2019-04-05T06:25:13.173Z,10.20
2019-04-05T06:30:56.121Z,6.60
2019-04-05T06:33:44.921Z,9.58
2019-04-05T06:35:39.482Z,7.97
2019-04-05T06:36:33.699Z,9.40
2019-04-05T06:39:22.579Z,11.97
2019-04-05T06:42:11.387Z,11.20
2019-04-05T06:45:00.171Z,14.00
2019-04-05T06:47:48.985Z,13.97
2019-04-05T06:50:37.773Z,12.63
2019-04-05T06:53:26.574Z,13.90
2019-04-05T06:56:15.367Z,14.00
2019-04-05T06:59:04.626Z,15.70
2019-04-05T07:01:53.597Z,17.03
2019-04-05T07:04:42.356Z,16.90
2019-04-05T07:10:25.351Z,14.90
2019-04-05T07:13:14.165Z,15.53
2019-04-05T07:15:56.041Z,18.07
2019-04-05T07:18:45.003Z,15.77
2019-04-05T07:21:17.115Z,15.07
2019-04-05T07:24:04.967Z,17.20
2019-04-05T07:26:53.749Z,19.83
2019-04-05T07:29:42.549Z,19.00
2019-04-05T07:32:31.564Z,20.20
2019-04-05T07:35:32.477Z,19.70
2019-04-05T07:38:10.837Z,18.57
2019-04-05T07:40:59.612Z,20.17
2019-04-05T07:43:48.418Z,18.33
2019-04-05T07:46:37.198Z,21.70
2019-04-05T07:49:25.988Z,19.40
2019-04-05T07:52:14.769Z,20.37
2019-04-05T07:58:18.626Z,13.57
2019-04-05T08:01:07.503Z,17.87
2019-04-05T08:03:58.110Z,16.47
2019-04-05T08:07:07.702Z,16.03
2019-04-05T08:09:56.619Z,26.17
2019-04-05T08:12:45.594Z,21.10
2019-04-05T08:18:35.281Z,15.37
2019-04-05T08:21:24.063Z,19.17
2019-04-05T08:24:12.852Z,18.10
2019-04-05T08:27:01.641Z,18.20
2019-04-05T08:29:50.452Z,19.63
2019-04-05T08:32:39.242Z,18.87
2019-04-05T08:35:28.054Z,18.40
2019-04-05T08:38:16.894Z,17.43
2019-04-05T08:41:05.767Z,21.07
2019-04-05T08:43:54.551Z,20.47
2019-04-05T08:46:43.355Z,18.43
2019-04-05T08:49:32.132Z,19.50
2019-04-05T08:52:20.934Z,16.77
2019-04-05T08:55:09.841Z,19.27
2019-04-05T08:57:58.625Z,17.40
2019-04-05T09:00:47.430Z,18.20
2019-04-05T09:03:36.223Z,15.33
2019-04-05T09:06:25.000Z,17.93
2019-04-05T09:09:13.811Z,14.60
2019-04-05T09:12:02.592Z,16.80
2019-04-05T09:14:51.415Z,14.27
2019-04-05T09:17:33.101Z,13.87
2019-04-05T09:20:21.896Z,13.30
2019-04-05T09:23:10.691Z,14.77
2019-04-05T09:25:59.472Z,18.37
2019-04-05T09:28:48.272Z,13.30
2019-04-05T09:31:37.074Z,14.43
2019-04-05T09:34:44.951Z,18.80
2019-04-05T09:37:33.759Z,13.88
2019-04-05T09:40:22.546Z,13.47
2019-04-05T09:43:11.336Z,14.50
2019-04-05T09:46:00.134Z,14.03
2019-04-05T09:48:48.947Z,15.53
2019-04-05T09:51:37.797Z,11.70
2019-04-05T09:54:26.674Z,16.20
2019-04-05T09:57:15.465Z,13.80
2019-04-05T10:00:26.737Z,15.17
2019-04-05T10:03:15.531Z,12.80
2019-04-05T10:06:04.392Z,13.80
2019-04-05T10:08:53.191Z,13.97
2019-04-05T10:11:41.995Z,14.93
2019-04-05T10:14:30.785Z,21.80
2019-04-05T10:17:12.863Z,12.77
2019-04-05T10:20:01.647Z,16.10
2019-04-05T10:22:50.463Z,14.60
2019-04-05T10:25:39.243Z,16.30
2019-04-05T10:28:28.032Z,17.20
2019-04-05T10:31:16.807Z,14.37
2019-04-05T10:34:05.610Z,14.77
2019-04-05T10:36:54.393Z,15.40
2019-04-05T10:39:43.202Z,16.60
2019-04-05T10:46:01.178Z,14.07
2019-04-05T10:48:49.972Z,18.30
2019-04-05T10:51:38.777Z,14.87
2019-04-05T10:54:27.586Z,23.47
2019-04-05T10:57:16.368Z,18.50
2019-04-05T11:00:26.071Z,15.37
2019-04-05T11:03:14.855Z,15.30
2019-04-05T11:06:03.648Z,14.00
2019-04-05T11:08:52.464Z,16.50
2019-04-05T11:11:41.241Z,15.23
2019-04-05T11:14:30.041Z,21.50
2019-04-05T11:17:11.491Z,15.37
2019-04-05T11:20:00.292Z,17.60
2019-04-05T11:22:50.085Z,15.60
2019-04-05T11:25:39.583Z,17.40
2019-04-05T11:28:28.383Z,14.57
2019-04-05T11:31:17.174Z,16.27
2019-04-05T11:34:05.976Z,17.40
2019-04-05T11:36:55.242Z,15.90
2019-04-05T11:40:04.954Z,17.13
2019-04-05T11:42:53.786Z,13.80
2019-04-05T11:45:42.574Z,18.50
2019-04-05T11:48:52.284Z,20.10
2019-04-05T11:51:43.159Z,19.70
2019-04-05T11:54:31.582Z,23.33
2019-04-05T11:57:20.387Z,15.57
2019-04-05T12:00:47.536Z,16.47
2019-04-05T12:03:36.392Z,17.63
2019-04-05T12:06:25.199Z,15.47
2019-04-05T12:09:13.988Z,15.97
2019-04-05T12:12:03.196Z,16.37
2019-04-05T12:14:51.938Z,18.00
2019-04-05T12:17:35.107Z,19.70
2019-04-05T12:20:23.775Z,19.37
2019-04-05T12:23:12.563Z,30.70
2019-04-05T12:26:04.189Z,20.00
2019-04-05T12:28:52.119Z,29.10
2019-04-05T12:31:40.927Z,18.90
2019-04-05T12:34:29.706Z,21.60
2019-04-05T12:37:21.853Z,20.00
2019-04-05T12:43:37.639Z,22.03
2019-04-05T12:46:26.444Z,19.17
2019-04-05T12:49:15.405Z,20.00
2019-04-05T12:52:05.777Z,21.13
2019-04-05T12:54:54.990Z,20.77
2019-04-05T12:57:48.325Z,20.20
2019-04-05T13:00:38.801Z,18.00
2019-04-05T13:03:26.861Z,19.70
2019-04-05T13:06:15.699Z,17.37
2019-04-05T13:09:26.187Z,21.07
2019-04-05T13:12:15.034Z,19.80
2019-04-05T13:18:11.921Z,18.43
2019-04-05T13:21:01.152Z,18.33
2019-04-05T13:23:51.220Z,19.13
2019-04-05T13:26:42.161Z,18.53
2019-04-05T13:29:30.558Z,17.80
2019-04-05T13:32:21.610Z,18.48
2019-04-05T13:35:10.033Z,18.57
2019-04-05T13:38:00.686Z,18.77
2019-04-05T13:40:49.335Z,19.83
2019-04-05T13:43:38.126Z,18.37
2019-04-05T13:46:26.933Z,20.10
2019-04-05T13:49:15.701Z,20.83
2019-04-05T13:52:06.665Z,20.67
2019-04-05T13:54:55.066Z,23.50
2019-04-05T13:57:43.889Z,19.13
2019-04-05T14:00:32.739Z,19.67
2019-04-05T14:03:21.537Z,21.43
2019-04-05T14:06:10.791Z,21.47
2019-04-05T14:08:59.627Z,21.10
2019-04-05T14:11:48.424Z,20.27
2019-04-05T14:14:37.291Z,23.30
2019-04-05T14:17:26.086Z,22.80
2019-04-05T14:20:18.564Z,22.23
2019-04-05T14:23:05.590Z,20.00
2019-04-05T14:25:54.448Z,19.77
2019-04-05T14:28:43.251Z,20.57
2019-04-05T14:31:32.243Z,18.00
2019-04-05T14:34:23.708Z,19.37
2019-04-05T14:37:13.063Z,20.40
2019-04-05T14:40:01.925Z,23.07
2019-04-05T14:42:50.719Z,19.20
2019-04-05T14:45:39.515Z,21.87
2019-04-05T14:48:31.782Z,19.77
2019-04-05T14:51:18.820Z,21.70
2019-04-05T14:54:09.880Z,21.73
2019-04-05T14:57:02.380Z,25.20
2019-04-05T14:59:48.643Z,21.67
2019-04-05T15:02:37.497Z,23.73
2019-04-05T15:05:26.303Z,19.10
2019-04-05T15:08:08.045Z,22.30
2019-04-05T15:10:57.325Z,21.23
2019-04-05T15:13:47.388Z,21.23
2019-04-05T15:16:36.216Z,24.30
2019-04-05T15:19:25.033Z,23.70
2019-04-05T15:22:13.798Z,29.30
2019-04-05T15:25:03.475Z,25.50
2019-04-05T15:27:55.539Z,23.07
2019-04-05T15:34:12.221Z,27.87
2019-04-05T15:37:01.581Z,24.63
2019-04-05T15:39:51.541Z,19.23
2019-04-05T15:42:40.354Z,24.40
2019-04-05T15:45:29.155Z,26.17
2019-04-05T15:48:17.956Z,25.60
2019-04-05T15:51:06.750Z,23.67
2019-04-05T15:53:55.547Z,26.60
2019-04-05T15:56:44.334Z,26.83
2019-04-05T15:59:33.885Z,22.57
2019-04-05T16:02:16.031Z,26.50
2019-04-05T16:05:25.737Z,25.60
2019-04-05T16:11:34.367Z,22.10
2019-04-05T16:14:23.157Z,27.80
2019-04-05T16:17:12.634Z,22.90
2019-04-05T16:20:02.900Z,25.70
2019-04-05T16:22:53.320Z,25.68
2019-04-05T16:25:42.104Z,27.27
2019-04-05T16:28:30.905Z,28.57
2019-04-05T16:31:19.680Z,33.10
2019-04-05T16:34:08.472Z,31.70
2019-04-05T16:36:57.266Z,27.10
2019-04-05T16:39:46.059Z,30.00
2019-04-05T16:42:34.842Z,25.73
2019-04-05T16:45:23.712Z,30.07
2019-04-05T16:48:12.662Z,26.07
2019-04-05T16:51:01.425Z,31.40
2019-04-05T16:54:09.236Z,29.90
2019-04-05T16:56:58.036Z,30.27
2019-04-05T16:59:46.813Z,38.87
2019-04-05T17:02:28.317Z,33.60
2019-04-05T17:05:17.105Z,35.30
2019-04-05T17:08:05.895Z,32.33
2019-04-05T17:10:54.696Z,39.70
2019-04-05T17:13:43.510Z,33.17
2019-04-05T17:16:32.981Z,35.00
2019-04-05T17:19:21.778Z,34.63
2019-04-05T17:22:10.580Z,35.47
2019-04-05T17:24:59.374Z,26.87
2019-04-05T17:27:48.157Z,35.77
2019-04-05T17:30:36.954Z,38.40
2019-04-05T17:33:25.741Z,33.80
2019-04-05T17:36:14.533Z,40.47
2019-04-05T17:42:12.722Z,29.93
2019-04-05T17:45:01.503Z,32.80
2019-04-05T17:47:50.315Z,42.03
2019-04-05T17:53:33.196Z,40.97
2019-04-05T17:56:22.056Z,30.90
2019-04-05T17:59:10.908Z,34.90
2019-04-05T18:04:47.341Z,31.50
2019-04-05T18:07:36.150Z,33.90
2019-04-05T18:10:25.007Z,29.97
2019-04-05T18:13:13.819Z,25.30
2019-04-05T18:19:10.410Z,31.37
2019-04-05T18:25:27.597Z,32.30
2019-04-05T18:28:16.388Z,32.60
2019-04-05T18:31:05.187Z,33.53
2019-04-05T18:33:53.972Z,29.77
2019-04-05T18:36:42.765Z,30.37
2019-04-05T18:39:31.540Z,30.97
2019-04-05T18:42:20.333Z,35.20
2019-04-05T18:45:09.430Z,32.00
2019-04-05T18:47:58.247Z,34.57
2019-04-05T18:50:48.476Z,39.20
2019-04-05T18:53:38.284Z,32.30
2019-04-05T18:56:28.126Z,27.93
2019-04-05T18:59:16.927Z,27.70
2019-04-05T19:02:05.803Z,35.90
2019-04-05T19:04:47.515Z,26.27
2019-04-05T19:07:36.294Z,23.50
2019-04-05T19:10:36.541Z,29.60
2019-04-05T19:13:15.624Z,28.00
2019-04-05T19:16:04.428Z,35.00
2019-04-05T19:18:53.205Z,35.63
2019-04-05T19:21:41.997Z,34.60
2019-04-05T19:24:30.808Z,49.77
2019-04-05T19:27:19.595Z,32.30
2019-04-05T19:48:36.043Z,32.67
2019-04-05T19:51:26.285Z,30.10
2019-04-05T19:54:15.131Z,31.00
2019-04-05T19:57:04.010Z,35.97
2019-04-05T19:59:52.893Z,31.93
2019-04-05T20:02:41.786Z,33.30
2019-04-05T20:05:23.219Z,34.20
2019-04-05T20:08:31.089Z,28.12
2019-04-05T20:11:19.941Z,31.10
2019-04-05T20:14:08.776Z,38.77
2019-04-05T20:16:57.583Z,35.37
2019-04-05T20:19:46.413Z,33.20
2019-04-05T20:25:42.994Z,30.53
2019-04-05T20:28:31.862Z,36.97
2019-04-05T20:31:20.730Z,35.00
2019-04-05T20:34:09.573Z,37.57
2019-04-05T20:36:58.379Z,31.27
2019-04-05T20:39:47.228Z,39.63
2019-04-05T20:42:36.080Z,35.75
2019-04-05T20:45:24.960Z,34.57
2019-04-05T20:48:13.808Z,33.20
2019-04-05T20:51:02.616Z,40.30
2019-04-05T20:53:51.447Z,41.33
2019-04-05T20:56:21.029Z,31.12
2019-04-05T20:59:02.317Z,35.10
2019-04-05T21:01:51.138Z,32.77
2019-04-05T21:04:33.275Z,34.70
2019-04-05T21:07:22.113Z,36.90
2019-04-05T21:10:10.958Z,31.37
2019-04-05T21:12:59.748Z,37.83
2019-04-05T21:15:48.605Z,40.63
2019-04-05T21:18:37.446Z,35.60
2019-04-05T21:21:26.318Z,32.63
2019-04-05T21:24:15.184Z,33.10
2019-04-05T21:27:04.055Z,37.27
2019-04-05T21:33:00.666Z,32.67
2019-04-05T21:35:49.554Z,40.07
2019-04-05T21:38:38.407Z,32.27
2019-04-05T21:41:27.219Z,36.93
2019-04-05T21:43:56.725Z,29.77
2019-04-05T21:46:45.541Z,34.07
2019-04-05T21:49:34.429Z,41.80
2019-04-05T21:55:30.977Z,35.70
2019-04-05T21:58:19.761Z,36.60
2019-04-05T22:04:04.831Z,34.03
2019-04-05T22:06:46.693Z,38.38
2019-04-05T22:09:35.507Z,30.07
2019-04-05T22:12:24.368Z,40.70
2019-04-05T22:15:13.298Z,30.60
2019-04-05T22:18:02.080Z,43.40
2019-04-05T22:20:50.873Z,37.17
2019-04-05T22:23:39.742Z,39.07
2019-04-05T22:26:28.542Z,38.80
2019-04-05T22:29:17.319Z,34.80
2019-04-05T22:32:06.126Z,42.13
2019-04-05T22:34:54.911Z,45.03
2019-04-05T22:37:43.714Z,43.87
2019-04-05T22:40:32.681Z,40.90
2019-04-05T22:43:21.477Z,36.40
2019-04-05T22:46:10.298Z,42.37
2019-04-05T22:48:59.076Z,39.87
2019-04-05T22:51:47.873Z,41.57
2019-04-05T22:54:36.652Z,40.30
2019-04-05T22:57:25.468Z,40.77
2019-04-05T23:00:14.341Z,37.07
2019-04-05T23:02:56.194Z,44.17
2019-04-05T23:05:44.992Z,39.27
2019-04-05T23:08:33.818Z,40.47
2019-04-05T23:11:22.594Z,41.20
2019-04-05T23:14:11.366Z,46.93
2019-04-05T23:17:00.166Z,40.50
2019-04-05T23:19:48.948Z,46.07
2019-04-05T23:22:37.762Z,39.57
2019-04-05T23:25:26.548Z,39.03
2019-04-05T23:28:15.357Z,37.20
2019-04-05T23:31:04.145Z,41.00
2019-04-05T23:33:52.952Z,38.10
2019-04-05T23:36:41.746Z,41.27
2019-04-05T23:39:30.547Z,32.97
2019-04-05T23:42:19.347Z,43.10
2019-04-05T23:45:08.210Z,42.83
2019-04-05T23:47:57.021Z,37.50
2019-04-05T23:50:45.832Z,39.67
2019-04-05T23:53:34.621Z,37.03
2019-04-05T23:59:18.364Z,32.20
